createdAt,value
2022-12-11T05:31:12.746Z,10.35
2022-12-11T05:32:14.978Z,12.85
2022-12-11T05:33:17.119Z,14.05
2022-12-11T05:34:19.276Z,14.65
2022-12-11T05:35:21.427Z,14.45
2022-12-11T05:36:29.118Z,14.45
2022-12-11T05:37:32.975Z,14.35
2022-12-11T05:38:35.376Z,15.23
2022-12-11T05:39:38.806Z,15.50
2022-12-11T05:40:41.251Z,14.20
2022-12-11T05:41:43.404Z,15.63
2022-12-11T05:42:45.546Z,15.13
2022-12-11T05:43:48.365Z,15.43
2022-12-11T05:44:50.628Z,15.30
2022-12-11T05:45:52.885Z,15.57
2022-12-11T05:46:55.024Z,14.13
2022-12-11T05:47:57.209Z,15.70
2022-12-11T05:49:01.506Z,15.88
2022-12-11T05:50:03.834Z,14.82
2022-12-11T05:51:07.068Z,14.88
2022-12-11T05:52:09.197Z,15.18
2022-12-11T05:53:11.426Z,15.55
2022-12-11T05:54:14.657Z,13.98
2022-12-11T05:55:17.263Z,16.13
2022-12-11T05:56:26.338Z,15.57
2022-12-11T05:57:28.492Z,15.55
2022-12-11T05:58:31.573Z,15.07
2022-12-11T05:59:33.715Z,16.08
2022-12-11T06:00:36.423Z,15.23
2022-12-11T06:01:41.269Z,15.15
2022-12-11T06:02:43.719Z,14.48
2022-12-11T06:03:46.303Z,15.85
2022-12-11T06:04:48.580Z,15.75
2022-12-11T06:05:50.879Z,16.40
2022-12-11T06:06:54.998Z,16.10
2022-12-11T06:07:57.154Z,15.32
2022-12-11T06:09:00.704Z,14.38
2022-12-11T06:10:02.855Z,15.82
2022-12-11T06:11:05.196Z,15.98
2022-12-11T06:12:07.611Z,15.02
2022-12-11T06:13:09.810Z,15.55
2022-12-11T06:14:12.255Z,16.00
2022-12-11T06:15:14.414Z,15.70
2022-12-11T06:16:16.694Z,15.48
2022-12-11T06:17:19.040Z,15.57
2022-12-11T06:18:21.292Z,16.75
2022-12-11T06:19:23.842Z,14.80
2022-12-11T06:20:25.977Z,15.73
2022-12-11T06:21:30.945Z,15.40
2022-12-11T06:22:33.075Z,15.05
2022-12-11T06:23:35.234Z,14.73
2022-12-11T06:24:37.495Z,15.25
2022-12-11T06:25:40.790Z,15.55
2022-12-11T06:26:43.008Z,15.95
2022-12-11T06:27:45.160Z,16.67
2022-12-11T06:28:47.758Z,15.32
2022-12-11T06:29:49.904Z,15.18
2022-12-11T06:30:52.190Z,15.30
2022-12-11T06:31:54.390Z,16.52
2022-12-11T06:32:58.019Z,15.63
2022-12-11T06:34:00.172Z,15.35
2022-12-11T06:35:02.353Z,15.68
2022-12-11T06:36:10.403Z,15.77
2022-12-11T06:37:12.510Z,15.35
2022-12-11T06:38:14.652Z,16.15
2022-12-11T06:39:16.807Z,15.93
2022-12-11T06:40:19.022Z,14.90
2022-12-11T06:41:21.120Z,15.82
2022-12-11T06:42:23.269Z,14.90
2022-12-11T06:43:25.694Z,15.13
2022-12-11T06:44:27.941Z,15.52
2022-12-11T06:45:30.191Z,14.63
2022-12-11T06:46:32.373Z,15.30
2022-12-11T06:47:34.579Z,14.75
2022-12-11T06:48:37.418Z,15.02
2022-12-11T06:49:39.515Z,15.55
2022-12-11T06:50:41.622Z,14.75
2022-12-11T06:51:43.765Z,14.70
2022-12-11T06:52:45.884Z,14.27
2022-12-11T06:53:52.846Z,14.55
2022-12-11T06:54:55.445Z,14.57
2022-12-11T06:56:06.109Z,14.93
2022-12-11T06:57:09.689Z,13.02
2022-12-11T06:58:11.974Z,15.02
2022-12-11T06:59:14.118Z,14.57
2022-12-11T07:00:16.751Z,14.55
2022-12-11T07:01:19.010Z,13.80
2022-12-11T07:02:21.363Z,13.90
2022-12-11T07:03:23.571Z,13.98
2022-12-11T07:04:27.419Z,13.27
2022-12-11T07:05:30.522Z,14.38
2022-12-11T07:06:32.786Z,14.40
2022-12-11T07:07:34.945Z,14.13
2022-12-11T07:08:37.342Z,14.07
2022-12-11T07:09:40.749Z,14.60
2022-12-11T07:10:42.835Z,14.43
2022-12-11T07:11:45.000Z,15.30
2022-12-11T07:12:47.221Z,14.40
2022-12-11T07:13:49.648Z,15.00
2022-12-11T07:14:51.804Z,14.23
2022-12-11T07:15:53.901Z,14.98
2022-12-11T07:16:56.389Z,15.82
2022-12-11T07:17:58.496Z,14.85
2022-12-11T07:19:01.123Z,15.60
2022-12-11T07:20:04.275Z,15.18
2022-12-11T07:21:07.910Z,14.15
2022-12-11T07:22:10.047Z,14.93
2022-12-11T07:23:12.149Z,15.65
2022-12-11T07:24:14.320Z,15.93
2022-12-11T07:25:16.514Z,15.73
2022-12-11T07:26:21.984Z,15.70
2022-12-11T07:27:24.418Z,15.57
2022-12-11T07:28:26.576Z,16.08
2022-12-11T07:29:28.763Z,14.70
2022-12-11T07:30:30.934Z,14.80
2022-12-11T07:31:33.165Z,16.45
2022-12-11T07:32:35.439Z,16.77
2022-12-11T07:33:37.675Z,15.57
2022-12-11T07:34:39.977Z,16.35
2022-12-11T07:35:42.397Z,15.20
2022-12-11T07:36:44.673Z,17.42
2022-12-11T07:37:46.915Z,15.60
2022-12-11T07:38:49.081Z,16.38
2022-12-11T07:39:51.253Z,15.90
2022-12-11T07:40:53.410Z,16.15
2022-12-11T07:41:55.614Z,16.83
2022-12-11T07:42:57.741Z,16.00
2022-12-11T07:44:01.186Z,16.45
2022-12-11T07:45:03.483Z,16.27
2022-12-11T07:46:08.847Z,16.50
2022-12-11T07:47:10.999Z,16.15
2022-12-11T07:48:13.159Z,15.98
2022-12-11T07:49:15.315Z,16.33
2022-12-11T07:50:17.525Z,16.15
2022-12-11T07:51:24.938Z,17.15
2022-12-11T07:52:27.098Z,15.85
2022-12-11T07:53:29.221Z,16.15
2022-12-11T07:54:31.349Z,16.95
2022-12-11T07:55:33.535Z,16.98
2022-12-11T07:56:35.919Z,17.50
2022-12-11T07:57:38.058Z,16.13
2022-12-11T07:58:40.250Z,16.45
2022-12-11T07:59:42.371Z,16.92
2022-12-11T08:00:45.376Z,16.85
2022-12-11T08:01:47.686Z,16.88
2022-12-11T08:02:49.834Z,15.82
2022-12-11T08:03:53.235Z,17.30
2022-12-11T08:04:55.351Z,16.42
2022-12-11T08:05:57.468Z,16.58
2022-12-11T08:06:59.616Z,16.75
2022-12-11T08:08:02.056Z,15.10
2022-12-11T08:09:08.293Z,16.45
2022-12-11T08:10:10.610Z,16.00
2022-12-11T08:11:14.878Z,15.65
2022-12-11T08:12:17.006Z,16.23
2022-12-11T08:13:19.123Z,16.70
2022-12-11T08:14:21.318Z,16.15
2022-12-11T08:15:23.471Z,15.48
2022-12-11T08:16:26.769Z,14.77
2022-12-11T08:17:31.016Z,16.17
2022-12-11T08:18:37.256Z,15.65
2022-12-11T08:19:39.416Z,15.45
2022-12-11T08:20:41.526Z,16.58
2022-12-11T08:21:43.778Z,15.90
2022-12-11T08:22:45.880Z,16.35
2022-12-11T08:23:48.979Z,15.48
2022-12-11T08:24:51.126Z,15.85
2022-12-11T08:25:53.287Z,15.63
2022-12-11T08:26:55.457Z,14.75
2022-12-11T08:27:57.603Z,16.05
2022-12-11T08:29:00.906Z,15.50
2022-12-11T08:30:03.466Z,15.18
2022-12-11T08:31:07.689Z,15.80
2022-12-11T08:32:12.427Z,16.00
2022-12-11T08:33:14.828Z,15.55
2022-12-11T08:34:16.995Z,15.50
2022-12-11T08:35:19.110Z,15.82
2022-12-11T08:36:22.944Z,15.93
2022-12-11T08:37:25.082Z,14.95
2022-12-11T08:38:27.191Z,15.95
2022-12-11T08:39:29.425Z,17.27
2022-12-11T08:40:31.593Z,16.15
2022-12-11T08:41:33.726Z,14.55
2022-12-11T08:42:35.932Z,15.70
2022-12-11T08:43:38.762Z,15.75
2022-12-11T08:44:41.286Z,16.55
2022-12-11T08:45:43.615Z,16.65
2022-12-11T08:46:46.812Z,16.48
2022-12-11T08:47:48.968Z,16.48
2022-12-11T08:48:51.295Z,16.80
2022-12-11T08:49:53.425Z,17.42
2022-12-11T08:50:58.721Z,16.08
2022-12-11T08:52:00.822Z,15.82
2022-12-11T08:53:02.993Z,16.08
2022-12-11T08:54:05.142Z,17.25
2022-12-11T08:55:07.711Z,16.15
2022-12-11T08:56:20.618Z,16.60
2022-12-11T08:57:22.782Z,14.68
2022-12-11T08:58:24.929Z,16.70
2022-12-11T08:59:27.102Z,15.80
2022-12-11T09:00:29.219Z,16.17
2022-12-11T09:01:31.509Z,15.50
2022-12-11T09:02:33.664Z,17.00
2022-12-11T09:03:37.084Z,17.45
2022-12-11T09:04:39.334Z,15.73
2022-12-11T09:05:41.447Z,15.95
2022-12-11T09:06:43.594Z,17.17
2022-12-11T09:07:45.818Z,16.77
2022-12-11T09:08:52.478Z,16.23
2022-12-11T09:09:55.756Z,16.30
2022-12-11T09:11:06.012Z,16.48
2022-12-11T09:12:08.143Z,15.40
2022-12-11T09:13:10.372Z,15.73
2022-12-11T09:14:12.538Z,16.45
2022-12-11T09:15:14.805Z,16.98
2022-12-11T09:16:19.302Z,17.50
2022-12-11T09:17:21.487Z,16.13
2022-12-11T09:18:23.758Z,16.58
2022-12-11T09:19:31.882Z,16.88
2022-12-11T09:20:34.451Z,15.95
2022-12-11T09:21:36.581Z,16.85
2022-12-11T09:22:39.678Z,17.33
2022-12-11T09:23:42.548Z,17.35
2022-12-11T09:24:46.158Z,17.38
2022-12-11T09:25:48.444Z,17.42
2022-12-11T09:26:50.556Z,16.23
2022-12-11T09:27:52.664Z,16.10
2022-12-11T09:28:55.087Z,15.45
2022-12-11T09:29:57.262Z,16.67
2022-12-11T09:30:59.845Z,15.98
2022-12-11T09:32:01.953Z,15.57
2022-12-11T09:33:04.150Z,14.98
2022-12-11T09:34:08.887Z,14.90
2022-12-11T09:35:11.404Z,15.80
2022-12-11T09:36:13.986Z,15.20
2022-12-11T09:37:16.113Z,14.10
2022-12-11T09:38:18.742Z,15.30
2022-12-11T09:39:20.987Z,14.45
2022-12-11T09:40:23.544Z,14.60
2022-12-11T09:41:46.646Z,14.23
2022-12-11T09:43:02.649Z,13.20
2022-12-11T09:44:33.270Z,12.80
2022-12-11T09:45:35.517Z,12.25
2022-12-11T09:46:39.971Z,14.48
2022-12-11T09:47:45.954Z,13.30
2022-12-11T09:48:49.211Z,14.30
2022-12-11T09:49:59.080Z,13.50
2022-12-11T09:51:10.391Z,13.13
2022-12-11T09:52:18.645Z,12.70
2022-12-11T09:53:37.548Z,13.43
2022-12-11T09:54:57.430Z,13.20
2022-12-11T09:56:14.471Z,12.85
2022-12-11T09:57:25.390Z,12.32
2022-12-11T09:58:34.067Z,12.68
2022-12-11T09:59:54.380Z,13.13
2022-12-11T10:01:10.187Z,13.32
2022-12-11T10:02:46.938Z,12.40
2022-12-11T10:04:20.350Z,12.57
2022-12-11T10:05:28.348Z,11.85
2022-12-11T10:06:59.557Z,12.93
2022-12-11T10:08:10.582Z,12.32
2022-12-11T10:09:34.564Z,13.68
2022-12-11T10:10:44.546Z,12.20
2022-12-11T10:11:56.383Z,11.70
2022-12-11T10:13:30.249Z,13.23
2022-12-11T10:14:51.394Z,13.00
2022-12-11T10:16:00.103Z,12.77
2022-12-11T10:17:13.210Z,12.85
2022-12-11T10:18:22.887Z,12.55
2022-12-11T10:19:32.533Z,12.90
2022-12-11T10:20:39.264Z,12.60
2022-12-11T10:21:43.172Z,13.60
2022-12-11T10:22:46.600Z,13.80
2022-12-11T10:24:00.881Z,13.48
2022-12-11T10:25:20.561Z,13.52
2022-12-11T10:26:24.347Z,12.95
2022-12-11T10:27:33.685Z,12.93
2022-12-11T10:28:38.850Z,12.88
2022-12-11T10:29:40.999Z,13.00
2022-12-11T10:31:04.343Z,13.15
2022-12-11T10:32:22.076Z,12.10
2022-12-11T10:33:34.582Z,14.00
2022-12-11T10:34:43.969Z,13.73
2022-12-11T10:35:55.404Z,14.40
2022-12-11T10:37:00.535Z,13.93
2022-12-11T10:38:18.432Z,12.93
2022-12-11T10:39:22.353Z,13.32
2022-12-11T10:40:28.721Z,13.25
2022-12-11T10:41:38.038Z,14.18
2022-12-11T10:42:45.517Z,13.05
2022-12-11T10:43:53.543Z,13.75
2022-12-11T10:45:03.921Z,13.05
2022-12-11T10:46:14.548Z,13.38
2022-12-11T10:47:19.165Z,13.65
2022-12-11T10:48:22.141Z,14.98
2022-12-11T10:49:30.210Z,14.60
2022-12-11T10:50:33.210Z,15.13
2022-12-11T10:51:37.500Z,14.32
2022-12-11T10:52:44.860Z,13.13
2022-12-11T10:54:07.480Z,13.80
2022-12-11T10:55:27.302Z,12.27
2022-12-11T10:56:31.922Z,12.60
2022-12-11T10:57:39.234Z,13.55
2022-12-11T10:58:49.628Z,13.77
2022-12-11T10:59:52.352Z,13.55
2022-12-11T11:01:10.741Z,12.93
2022-12-11T11:02:42.879Z,12.48
2022-12-11T11:03:56.855Z,18.17
2022-12-11T11:05:00.688Z,14.95
2022-12-11T11:06:14.737Z,15.90
2022-12-11T11:07:20.478Z,14.35
2022-12-11T11:08:23.518Z,14.38
2022-12-11T11:09:35.431Z,13.80
2022-12-11T11:10:37.927Z,13.75
2022-12-11T11:11:40.157Z,20.00
2022-12-11T11:12:45.849Z,18.88
2022-12-11T11:13:48.117Z,19.83
2022-12-11T11:15:04.384Z,16.55
2022-12-11T11:16:12.198Z,14.30
2022-12-11T11:17:16.717Z,14.63
2022-12-11T11:18:27.578Z,14.63
2022-12-11T11:19:36.975Z,13.43
2022-12-11T11:20:47.382Z,13.35
2022-12-11T11:21:56.391Z,12.75
2022-12-11T11:23:02.019Z,12.95
2022-12-11T11:24:04.701Z,13.88
2022-12-11T11:25:16.192Z,13.07
2022-12-11T11:26:19.490Z,12.85
2022-12-11T11:27:24.376Z,13.10
2022-12-11T11:28:29.553Z,13.48
2022-12-11T11:29:35.562Z,12.65
2022-12-11T11:30:41.068Z,13.05
2022-12-11T11:31:43.319Z,13.35
2022-12-11T11:32:45.652Z,13.98
2022-12-11T11:33:47.765Z,15.45
2022-12-11T11:34:49.910Z,13.38
2022-12-11T11:35:58.965Z,13.32
2022-12-11T11:37:05.511Z,12.73
2022-12-11T11:38:29.551Z,12.63
2022-12-11T11:39:45.058Z,12.05
2022-12-11T11:41:15.334Z,12.82
2022-12-11T11:42:35.207Z,11.75
2022-12-11T11:43:54.144Z,11.88
2022-12-11T11:45:13.541Z,12.43
2022-12-11T11:46:25.543Z,12.18
2022-12-11T11:47:32.996Z,12.98
2022-12-11T11:49:13.377Z,12.23
2022-12-11T11:50:20.654Z,13.43
2022-12-11T11:51:38.741Z,13.10
2022-12-11T11:52:49.264Z,13.55
2022-12-11T11:53:54.396Z,14.20
2022-12-11T11:55:18.465Z,14.07
2022-12-11T11:56:26.338Z,13.20
2022-12-11T11:57:50.437Z,14.60
2022-12-11T11:58:59.391Z,13.38
2022-12-11T12:00:15.586Z,14.23
2022-12-11T12:01:20.630Z,13.45
2022-12-11T12:02:22.831Z,14.57
2022-12-11T12:03:26.084Z,13.85
2022-12-11T12:04:35.128Z,13.60
2022-12-11T12:05:52.983Z,14.13
2022-12-11T12:06:58.293Z,13.82
2022-12-11T12:08:03.573Z,14.18
2022-12-11T12:09:48.128Z,14.20
2022-12-11T12:11:02.299Z,14.52
2022-12-11T12:12:42.094Z,14.02
2022-12-11T12:14:03.419Z,17.30
2022-12-11T12:15:18.332Z,16.17
2022-12-11T12:16:52.778Z,14.50
2022-12-11T12:17:57.278Z,12.52
2022-12-11T12:19:13.069Z,11.98
2022-12-11T12:20:33.080Z,13.05
2022-12-11T12:21:38.836Z,12.55
2022-12-11T12:22:52.916Z,14.68
2022-12-11T12:24:05.442Z,15.43
2022-12-11T12:25:40.507Z,13.52
2022-12-11T12:27:00.268Z,12.25
2022-12-11T12:28:19.528Z,13.20
2022-12-11T12:29:45.338Z,12.82
2022-12-11T12:31:22.641Z,12.35
2022-12-11T12:33:02.137Z,11.90
2022-12-11T12:34:19.288Z,11.85
2022-12-11T12:35:24.246Z,11.27
2022-12-11T12:36:37.495Z,12.65
2022-12-11T12:38:01.349Z,11.30
2022-12-11T12:39:38.389Z,10.82
2022-12-11T12:41:27.947Z,11.82
2022-12-11T12:42:46.469Z,11.85
2022-12-11T12:44:01.043Z,11.27
2022-12-11T12:45:21.338Z,11.50
2022-12-11T12:46:34.944Z,11.65
2022-12-11T12:47:38.469Z,11.13
2022-12-11T12:48:40.750Z,12.15
2022-12-11T12:50:03.642Z,11.85
2022-12-11T12:51:06.760Z,11.05
2022-12-11T12:52:21.303Z,11.55
2022-12-11T12:53:28.602Z,10.88
2022-12-11T12:54:33.410Z,12.13
2022-12-11T12:55:36.525Z,11.13
2022-12-11T12:56:40.623Z,11.82
2022-12-11T12:57:53.359Z,11.10
2022-12-11T12:58:55.661Z,12.07
2022-12-11T12:59:57.831Z,12.02
2022-12-11T13:01:17.432Z,12.35
2022-12-11T13:02:19.816Z,11.00
2022-12-11T13:03:32.957Z,12.35
2022-12-11T13:04:58.463Z,11.70
2022-12-11T13:06:06.187Z,11.10
2022-12-11T13:07:29.977Z,11.15
2022-12-11T13:08:48.480Z,11.85
2022-12-11T13:10:07.075Z,11.23
2022-12-11T13:11:12.022Z,11.13
2022-12-11T13:12:15.959Z,12.93
2022-12-11T13:13:38.421Z,12.00
2022-12-11T13:14:40.826Z,11.10
2022-12-11T13:15:43.879Z,12.43
2022-12-11T13:16:47.840Z,16.15
2022-12-11T13:17:50.080Z,16.23
2022-12-11T13:18:52.713Z,14.88
2022-12-11T13:20:16.255Z,14.23
2022-12-11T13:21:27.394Z,13.15
2022-12-11T13:22:29.564Z,12.07
2022-12-11T13:23:34.620Z,12.52
2022-12-11T13:24:58.510Z,13.75
2022-12-11T13:26:05.006Z,11.75
2022-12-11T13:27:22.189Z,11.63
2022-12-11T13:28:31.785Z,10.60
2022-12-11T13:29:39.916Z,11.27
2022-12-11T13:30:42.784Z,11.95
2022-12-11T13:31:45.669Z,11.27
2022-12-11T13:33:15.851Z,11.63
2022-12-11T13:34:22.306Z,10.90
2022-12-11T13:35:25.112Z,13.02
2022-12-11T13:36:33.810Z,13.25
2022-12-11T13:37:44.225Z,11.65
2022-12-11T13:38:50.525Z,13.02
2022-12-11T13:39:53.439Z,15.50
2022-12-11T13:40:57.524Z,17.42
2022-12-11T13:42:04.549Z,24.73
2022-12-11T13:43:17.663Z,20.25
2022-12-11T13:44:32.833Z,28.38
2022-12-11T13:45:40.301Z,22.35
2022-12-11T13:46:44.065Z,15.73
2022-12-11T13:47:47.644Z,15.70
2022-12-11T13:48:55.299Z,13.63
2022-12-11T13:50:15.704Z,12.02
2022-12-11T13:51:20.330Z,12.18
2022-12-11T13:52:25.907Z,12.15
2022-12-11T13:53:28.445Z,11.20
2022-12-11T13:54:33.805Z,11.32
2022-12-11T13:55:36.028Z,11.25
2022-12-11T13:56:38.315Z,11.07
2022-12-11T13:57:46.208Z,10.38
2022-12-11T13:58:48.779Z,10.40
2022-12-11T13:59:53.911Z,10.77
2022-12-11T14:01:08.171Z,10.32
2022-12-11T14:02:22.237Z,10.27
2022-12-11T14:03:24.966Z,10.02
2022-12-11T14:04:28.736Z,10.93
2022-12-11T14:05:31.181Z,11.35
2022-12-11T14:06:34.648Z,10.45
2022-12-11T14:07:46.696Z,10.75
2022-12-11T14:08:53.103Z,11.07
2022-12-11T14:10:02.504Z,12.10
2022-12-11T14:11:05.733Z,12.52
2022-12-11T14:12:15.288Z,11.00
2022-12-11T14:13:35.309Z,10.73
2022-12-11T14:14:43.425Z,10.13
2022-12-11T14:15:46.453Z,10.88
2022-12-11T14:16:51.493Z,10.02
2022-12-11T14:17:54.609Z,9.38
2022-12-11T14:19:06.114Z,11.10
2022-12-11T14:20:19.203Z,11.57
2022-12-11T14:21:24.305Z,11.38
2022-12-11T14:22:28.560Z,12.23
2022-12-11T14:23:36.198Z,12.23
2022-12-11T14:24:58.499Z,12.07
2022-12-11T14:26:03.764Z,10.60
2022-12-11T14:27:18.574Z,11.57
2022-12-11T14:28:21.925Z,11.18
2022-12-11T14:29:30.414Z,11.65
2022-12-11T14:30:35.565Z,11.70
2022-12-11T14:31:43.463Z,11.27
2022-12-11T14:32:46.157Z,11.10
2022-12-11T14:33:53.890Z,11.63
2022-12-11T14:34:56.356Z,11.35
2022-12-11T14:35:59.103Z,11.52
2022-12-11T14:37:05.097Z,11.60
2022-12-11T14:38:16.490Z,11.07
2022-12-11T14:39:28.128Z,11.73
2022-12-11T14:40:39.298Z,11.15
2022-12-11T14:41:47.846Z,11.65
2022-12-11T14:43:00.119Z,11.50
2022-12-11T14:44:06.793Z,12.02
2022-12-11T14:45:34.557Z,12.70
2022-12-11T14:46:51.446Z,12.77
2022-12-11T14:47:54.863Z,12.15
2022-12-11T14:49:21.445Z,13.52
2022-12-11T14:50:46.404Z,11.30
2022-12-11T14:51:50.466Z,11.80
2022-12-11T14:53:00.284Z,12.98
2022-12-11T14:54:03.330Z,13.00
2022-12-11T14:55:09.054Z,13.10
2022-12-11T14:56:22.163Z,13.82
2022-12-11T14:57:28.871Z,12.48
2022-12-11T14:58:33.193Z,12.63
2022-12-11T14:59:44.272Z,13.68
2022-12-11T15:01:01.261Z,12.38
2022-12-11T15:02:21.968Z,12.27
2022-12-11T15:03:29.695Z,11.93
2022-12-11T15:04:33.439Z,11.90
2022-12-11T15:05:40.868Z,12.52
2022-12-11T15:06:46.339Z,12.95
2022-12-11T15:08:10.859Z,13.07
2022-12-11T15:09:21.909Z,11.65
2022-12-11T15:10:41.064Z,11.43
2022-12-11T15:11:43.457Z,12.30
2022-12-11T15:12:46.292Z,12.05
2022-12-11T15:14:02.756Z,12.80
2022-12-11T15:15:07.331Z,11.20
2022-12-11T15:16:13.925Z,13.00
2022-12-11T15:17:16.666Z,11.55
2022-12-11T15:18:27.161Z,12.27
2022-12-11T15:19:31.316Z,12.43
2022-12-11T15:20:33.552Z,12.25
2022-12-11T15:21:37.716Z,11.82
2022-12-11T15:22:44.607Z,11.75
2022-12-11T15:23:56.525Z,12.40
2022-12-11T15:24:59.328Z,12.23
2022-12-11T15:26:02.861Z,12.82
2022-12-11T15:27:05.867Z,11.85
2022-12-11T15:28:27.899Z,12.02
2022-12-11T15:29:39.592Z,11.05
2022-12-11T15:30:41.802Z,11.60
2022-12-11T15:31:44.124Z,11.75
2022-12-11T15:32:46.617Z,11.77
2022-12-11T15:33:48.829Z,11.82
2022-12-11T15:34:54.247Z,12.45
2022-12-11T15:36:07.072Z,12.48
2022-12-11T15:37:22.614Z,13.00
2022-12-11T15:38:42.144Z,12.23
2022-12-11T15:39:44.366Z,11.07
2022-12-11T15:40:46.552Z,11.65
2022-12-11T15:41:48.729Z,12.60
2022-12-11T15:42:51.857Z,13.13
2022-12-11T15:43:58.854Z,13.40
2022-12-11T15:45:02.802Z,12.73
2022-12-11T15:46:06.258Z,14.45
2022-12-11T15:47:26.407Z,12.75
2022-12-11T15:48:28.558Z,12.70
2022-12-11T15:49:30.654Z,14.73
2022-12-11T15:50:32.833Z,14.55
2022-12-11T15:51:39.727Z,15.10
2022-12-11T15:52:45.318Z,14.10
2022-12-11T15:53:47.431Z,13.80
2022-12-11T15:54:49.605Z,13.85
2022-12-11T15:55:52.684Z,13.93
2022-12-11T15:56:55.390Z,14.00
2022-12-11T15:58:04.750Z,13.30
2022-12-11T15:59:07.056Z,13.48
2022-12-11T16:00:15.683Z,14.32
2022-12-11T16:01:17.910Z,13.57
2022-12-11T16:02:20.115Z,13.32
2022-12-11T16:03:23.479Z,13.05
2022-12-11T16:04:25.774Z,12.80
2022-12-11T16:05:27.949Z,13.50
2022-12-11T16:06:30.108Z,12.73
2022-12-11T16:07:33.355Z,12.25
2022-12-11T16:08:35.471Z,12.18
2022-12-11T16:09:37.645Z,12.80
2022-12-11T16:10:39.749Z,11.73
2022-12-11T16:11:41.899Z,12.65
2022-12-11T16:12:44.962Z,13.20
2022-12-11T16:13:47.131Z,12.27
2022-12-11T16:14:49.403Z,12.60
2022-12-11T16:15:53.637Z,12.43
2022-12-11T16:16:55.854Z,13.35
2022-12-11T16:18:09.895Z,13.52
2022-12-11T16:19:12.031Z,11.02
2022-12-11T16:20:14.925Z,12.80
2022-12-11T16:21:21.339Z,12.50
2022-12-11T16:22:23.909Z,12.02
2022-12-11T16:23:26.140Z,41.67
2022-12-11T16:24:28.832Z,102.32
2022-12-11T16:25:32.635Z,93.40
2022-12-11T16:26:34.761Z,58.25
2022-12-11T16:27:36.888Z,35.67
2022-12-11T16:28:39.081Z,23.77
2022-12-11T16:29:42.000Z,18.98
2022-12-11T16:30:45.212Z,15.90
2022-12-11T16:31:47.594Z,15.40
2022-12-11T16:32:49.970Z,15.20
2022-12-11T16:33:52.107Z,14.60
2022-12-11T16:34:54.274Z,14.68
2022-12-11T16:35:56.487Z,14.48
2022-12-11T16:36:59.395Z,15.02
2022-12-11T16:38:01.616Z,15.73
2022-12-11T16:39:04.187Z,15.25
2022-12-11T16:40:07.077Z,42.70
2022-12-11T16:41:09.278Z,37.13
2022-12-11T16:42:11.438Z,27.48
2022-12-11T16:43:13.612Z,17.50
2022-12-11T16:44:21.121Z,16.98
2022-12-11T16:45:26.449Z,15.70
2022-12-11T16:46:28.759Z,14.93
2022-12-11T16:47:31.181Z,14.75
2022-12-11T16:48:33.381Z,13.32
2022-12-11T16:49:35.514Z,13.27
2022-12-11T16:50:40.254Z,13.55
2022-12-11T16:51:43.012Z,12.60
2022-12-11T16:52:45.612Z,15.52
2022-12-11T16:53:47.786Z,15.93
2022-12-11T16:54:50.006Z,14.57
2022-12-11T16:55:52.232Z,15.27
2022-12-11T16:56:54.374Z,14.80
2022-12-11T16:57:56.587Z,14.40
2022-12-11T16:59:00.729Z,14.00
2022-12-11T17:00:05.489Z,13.43
2022-12-11T17:01:12.795Z,13.30
2022-12-11T17:02:15.269Z,12.88
2022-12-11T17:03:18.986Z,14.25
2022-12-11T17:04:21.146Z,13.80
2022-12-11T17:05:23.737Z,13.90
2022-12-11T17:06:26.658Z,13.85
2022-12-11T17:07:28.819Z,12.85
2022-12-11T17:08:31.013Z,12.80
2022-12-11T17:09:34.491Z,12.75
2022-12-11T17:10:41.841Z,11.25
2022-12-11T17:11:43.945Z,11.73
2022-12-11T17:12:46.130Z,12.35
2022-12-11T17:13:53.312Z,11.45
2022-12-11T17:14:55.922Z,12.15
2022-12-11T17:15:58.323Z,11.77
2022-12-11T17:17:00.648Z,12.73
2022-12-11T17:18:02.820Z,12.02
2022-12-11T17:19:07.250Z,13.63
2022-12-11T17:20:10.868Z,13.40
2022-12-11T17:21:16.199Z,13.32
2022-12-11T17:22:18.381Z,13.85
2022-12-11T17:23:20.534Z,14.20
2022-12-11T17:24:22.856Z,12.55
2022-12-11T17:25:24.986Z,13.25
2022-12-11T17:26:28.566Z,14.27
2022-12-11T17:27:30.686Z,14.57
2022-12-11T17:28:32.994Z,14.00
2022-12-11T17:29:35.174Z,13.68
2022-12-11T17:30:45.585Z,13.55
2022-12-11T17:31:48.379Z,12.00
2022-12-11T17:32:50.554Z,13.10
2022-12-11T17:33:54.009Z,15.70
2022-12-11T17:34:56.190Z,14.60
2022-12-11T17:36:02.870Z,13.95
2022-12-11T17:37:05.587Z,14.63
2022-12-11T17:38:07.844Z,14.52
2022-12-11T17:39:10.026Z,15.23
2022-12-11T17:40:12.364Z,14.15
2022-12-11T17:41:20.501Z,13.05
2022-12-11T17:42:23.096Z,13.60
2022-12-11T17:43:25.844Z,12.40
2022-12-11T17:44:30.558Z,12.50
2022-12-11T17:45:32.866Z,13.82
2022-12-11T17:46:35.139Z,15.23
2022-12-11T17:47:37.441Z,14.32
2022-12-11T17:48:39.879Z,15.05
2022-12-11T17:49:42.266Z,16.90
2022-12-11T17:50:46.716Z,15.52
2022-12-11T17:51:48.889Z,15.18
2022-12-11T17:52:51.595Z,14.13
2022-12-11T17:53:56.013Z,13.60
2022-12-11T17:54:58.141Z,13.05
2022-12-11T17:56:05.454Z,13.75
2022-12-11T17:57:07.568Z,13.68
2022-12-11T17:58:11.395Z,12.63
2022-12-11T17:59:13.590Z,13.07
2022-12-11T18:00:16.012Z,13.25
2022-12-11T18:01:18.269Z,13.43
2022-12-11T18:02:20.556Z,12.73
2022-12-11T18:03:22.983Z,13.20
2022-12-11T18:04:25.294Z,12.77
2022-12-11T18:05:27.545Z,12.63
2022-12-11T18:06:30.570Z,12.82
2022-12-11T18:07:35.325Z,12.63
2022-12-11T18:08:37.915Z,13.55
2022-12-11T18:09:41.078Z,12.98
2022-12-11T18:10:43.792Z,12.38
2022-12-11T18:11:45.934Z,13.02
2022-12-11T18:12:48.154Z,12.57
2022-12-11T18:13:51.438Z,13.82
2022-12-11T18:14:53.574Z,14.15
2022-12-11T18:16:27.136Z,13.40
2022-12-11T18:17:29.335Z,11.40
2022-12-11T18:18:31.837Z,11.75
2022-12-11T18:19:34.018Z,12.55
2022-12-11T18:20:37.381Z,12.52
2022-12-11T18:21:43.691Z,13.35
2022-12-11T18:22:45.854Z,12.70
2022-12-11T18:23:50.087Z,14.25
2022-12-11T18:24:52.244Z,13.32
2022-12-11T18:25:55.147Z,12.93
2022-12-11T18:26:58.738Z,12.65
2022-12-11T18:28:00.910Z,11.68
2022-12-11T18:29:03.705Z,11.35
2022-12-11T18:30:06.650Z,11.27
2022-12-11T18:31:09.639Z,11.13
2022-12-11T18:32:11.870Z,11.25
2022-12-11T18:33:14.125Z,11.07
2022-12-11T18:34:16.280Z,11.32
2022-12-11T18:35:18.609Z,10.65
2022-12-11T18:36:21.552Z,11.32
2022-12-11T18:37:27.939Z,12.20
2022-12-11T18:38:30.603Z,12.02
2022-12-11T18:39:32.722Z,10.98
2022-12-11T18:40:34.862Z,11.45
2022-12-11T18:41:37.021Z,11.80
2022-12-11T18:42:39.548Z,11.30
2022-12-11T18:43:42.049Z,12.25
2022-12-11T18:44:45.420Z,11.70
2022-12-11T18:45:47.702Z,11.35
2022-12-11T18:46:50.432Z,11.77
2022-12-11T18:47:53.096Z,11.60
2022-12-11T18:48:57.178Z,11.18
2022-12-11T18:50:05.571Z,11.50
2022-12-11T18:51:12.580Z,10.85
2022-12-11T18:52:14.725Z,10.55
2022-12-11T18:53:18.729Z,11.88
2022-12-11T18:54:20.855Z,12.52
2022-12-11T18:55:23.196Z,11.60
2022-12-11T18:56:25.378Z,11.32
2022-12-11T18:57:27.540Z,12.35
2022-12-11T18:58:29.680Z,11.95
2022-12-11T18:59:31.785Z,10.68
2022-12-11T19:00:33.925Z,11.68
2022-12-11T19:01:36.723Z,10.70
2022-12-11T19:02:38.880Z,12.07
2022-12-11T19:03:41.271Z,11.32
2022-12-11T19:04:43.454Z,11.57
2022-12-11T19:05:45.645Z,11.60
2022-12-11T19:06:47.848Z,11.52
2022-12-11T19:07:50.067Z,12.05
2022-12-11T19:08:52.455Z,11.70
2022-12-11T19:09:54.597Z,11.48
2022-12-11T19:10:56.826Z,11.80
2022-12-11T19:11:58.969Z,11.25
2022-12-11T19:13:01.119Z,11.68
2022-12-11T19:14:05.938Z,11.70
2022-12-11T19:15:09.039Z,12.30
2022-12-11T19:16:19.145Z,11.18
2022-12-11T19:17:21.332Z,10.52
2022-12-11T19:18:24.297Z,11.82
2022-12-11T19:19:26.470Z,12.18
2022-12-11T19:21:51.290Z,11.60
2022-12-11T19:22:53.453Z,11.90
2022-12-11T19:23:55.774Z,12.30
2022-12-11T19:24:58.053Z,12.45
2022-12-11T19:26:00.227Z,13.05
2022-12-11T19:27:02.422Z,11.85
2022-12-11T19:28:04.669Z,12.90
2022-12-11T19:29:08.301Z,13.25
2022-12-11T19:30:12.175Z,14.27
2022-12-11T19:31:17.261Z,15.00
2022-12-11T19:32:19.483Z,15.45
2022-12-11T19:33:21.845Z,15.70
2022-12-11T19:34:24.754Z,15.77
2022-12-11T19:35:26.893Z,16.13
2022-12-11T19:36:31.126Z,16.13
2022-12-11T19:37:33.346Z,15.95
2022-12-11T19:38:36.258Z,16.08
2022-12-11T19:39:41.528Z,16.10
2022-12-11T19:40:44.712Z,15.57
2022-12-11T19:41:47.116Z,15.32
2022-12-11T19:42:49.240Z,15.90
2022-12-11T19:43:51.548Z,15.35
2022-12-11T19:44:53.663Z,14.73